Time;durP1;ratioP1;P1;durP2;ratioP2;P2;SDS_P1;SDS_P2;PMS_P1;PMS_P2;Temp;Humidity;BMP_temperature;BMP_pressure;BME280_temperature;BME280_humidity;BME280_pressure;Samples;Min_cycle;Max_cycle;Signal;HPM_P1;HPM_P2
2022/04/03 00:01:53;;;;;;;1.55;1.33;;;;;;;-0.70;100.00;97227.38;5111206;28;20134;-58
2022/04/03 00:04:19;;;;;;;3.17;1.52;;;;;;;-0.68;100.00;97241.28;5111379;28;20485;-59
2022/04/03 00:06:46;;;;;;;3.03;1.60;;;;;;;-0.75;100.00;97241.09;5111359;28;20066;-59
2022/04/03 00:09:12;;;;;;;1.73;1.63;;;;;;;-0.78;100.00;97236.38;5111241;28;20048;-59
2022/04/03 00:11:38;;;;;;;1.92;1.50;;;;;;;-0.79;100.00;97232.91;5111015;28;20047;-59
2022/04/03 00:14:04;;;;;;;1.38;1.27;;;;;;;-0.74;100.00;97248.03;5110968;28;20051;-59
2022/04/03 00:16:32;;;;;;;2.00;1.30;;;;;;;-0.87;100.00;97252.63;5111273;28;20047;-58
2022/04/03 00:19:00;;;;;;;2.92;1.50;;;;;;;-0.96;100.00;97260.03;5110939;28;20048;-59
2022/04/03 00:21:26;;;;;;;3.25;1.60;;;;;;;-0.95;100.00;97248.16;5111058;28;20055;-59
2022/04/03 00:23:53;;;;;;;6.40;1.88;;;;;;;-0.98;100.00;97243.44;5110804;28;20052;-59
2022/04/03 00:26:19;;;;;;;2.97;1.45;;;;;;;-1.01;100.00;97239.50;5110999;28;20044;-59
2022/04/03 00:28:46;;;;;;;2.25;1.58;;;;;;;-1.03;100.00;97257.91;5110147;28;20058;-59
2022/04/03 00:31:12;;;;;;;5.88;1.88;;;;;;;-1.10;100.00;97259.56;5110294;28;20051;-59
2022/04/03 00:33:38;;;;;;;1.42;1.20;;;;;;;-1.12;100.00;97246.47;5110528;28;20108;-59
2022/04/03 00:36:05;;;;;;;2.58;1.73;;;;;;;-1.12;100.00;97251.84;5110414;28;20051;-58
2022/04/03 00:38:31;;;;;;;5.55;1.58;;;;;;;-1.16;100.00;97242.09;5110832;28;20066;-59
2022/04/03 00:41:00;;;;;;;1.63;1.52;;;;;;;-1.11;100.00;97250.72;5110949;28;20096;-59
2022/04/03 00:43:26;;;;;;;2.60;1.60;;;;;;;-1.16;100.00;97239.41;5110765;28;20048;-59
2022/04/03 00:45:53;;;;;;;2.10;1.48;;;;;;;-1.25;100.00;97256.41;5110467;28;20066;-58
2022/04/03 00:48:19;;;;;;;2.20;1.38;;;;;;;-1.36;100.00;97254.50;5110831;28;20070;-59
2022/04/03 00:50:46;;;;;;;1.75;1.42;;;;;;;-1.30;100.00;97242.38;5110610;28;20048;-59
2022/04/03 00:53:12;;;;;;;1.88;1.58;;;;;;;-1.29;100.00;97217.88;5110682;28;20057;-59
2022/04/03 00:55:41;;;;;;;2.17;2.00;;;;;;;-1.29;100.00;97211.72;5110744;28;20108;-59
2022/04/03 00:58:09;;;;;;;2.80;1.55;;;;;;;-1.39;100.00;97233.66;5110654;28;20069;-59
2022/04/03 01:00:35;;;;;;;2.00;1.60;;;;;;;-1.40;100.00;97224.00;5110358;28;20051;-59
2022/04/03 01:03:02;;;;;;;3.28;1.80;;;;;;;-1.34;100.00;97218.09;5110486;28;20062;-59
2022/04/03 01:05:28;;;;;;;3.95;1.70;;;;;;;-1.42;100.00;97235.88;5110522;28;20415;-59
2022/04/03 01:07:54;;;;;;;2.60;1.52;;;;;;;-1.44;100.00;97229.25;5110456;28;20105;-59
2022/04/03 01:10:21;;;;;;;4.82;1.92;;;;;;;-1.50;100.00;97227.91;5110457;28;20094;-59
2022/04/03 01:12:47;;;;;;;2.33;1.60;;;;;;;-1.55;100.00;97212.78;5110384;28;20056;-59
2022/04/03 01:15:15;;;;;;;1.58;1.45;;;;;;;-1.58;100.00;97220.72;5110492;28;20506;-59
2022/04/03 01:17:43;;;;;;;1.80;1.35;;;;;;;-1.67;100.00;97210.06;5110608;28;20075;-59
2022/04/03 01:20:10;;;;;;;2.28;1.60;;;;;;;-1.72;100.00;97199.53;5110631;28;20081;-59
2022/04/03 01:22:37;;;;;;;3.53;1.65;;;;;;;-1.74;100.00;97197.19;5110299;28;20090;-59
2022/04/03 01:25:05;;;;;;;3.28;1.65;;;;;;;-1.76;100.00;97169.09;5110356;28;20048;-59
2022/04/03 01:27:31;;;;;;;1.70;1.60;;;;;;;-1.69;100.00;97158.59;5110012;28;20054;-59
2022/04/03 01:29:57;;;;;;;4.72;1.67;;;;;;;-1.84;100.00;97173.44;5110228;28;20055;-59
2022/04/03 01:32:24;;;;;;;2.53;1.35;;;;;;;-1.85;100.00;97153.06;5110396;28;20604;-59
2022/04/03 01:34:50;;;;;;;1.90;1.73;;;;;;;-1.83;100.00;97156.22;5109861;28;20894;-59
2022/04/03 01:37:16;;;;;;;2.33;2.10;;;;;;;-1.91;100.00;97155.16;5110665;28;20460;-59
2022/04/03 01:39:43;;;;;;;1.80;1.60;;;;;;;-1.92;100.00;97147.47;5110217;28;20047;-58
2022/04/03 01:42:10;;;;;;;2.78;2.05;;;;;;;-1.93;100.00;97137.84;5113508;28;20055;-59
2022/04/03 01:44:36;;;;;;;4.03;1.70;;;;;;;-1.92;100.00;97126.75;5113668;28;20048;-59
2022/04/03 01:47:03;;;;;;;4.75;1.77;;;;;;;-2.00;100.00;97124.97;5113611;28;20051;-58
2022/04/03 01:49:29;;;;;;;2.38;1.30;;;;;;;-1.98;100.00;97116.56;5113516;28;20184;-59
2022/04/03 01:51:55;;;;;;;3.17;1.70;;;;;;;-2.00;100.00;97116.09;5113138;28;20044;-59
2022/04/03 01:54:21;;;;;;;3.42;1.77;;;;;;;-2.03;100.00;97111.38;5113239;28;20054;-59
2022/04/03 01:56:47;;;;;;;1.83;1.60;;;;;;;-1.99;100.00;97123.06;5113329;28;20105;-59
2022/04/03 01:59:14;;;;;;;3.33;1.70;;;;;;;-2.07;100.00;97115.84;5113124;28;20047;-59
2022/04/03 02:01:40;;;;;;;2.63;1.73;;;;;;;-2.15;100.00;97110.25;5113404;28;20507;-59
2022/04/03 02:04:06;;;;;;;2.28;1.60;;;;;;;-2.22;100.00;97110.00;5113171;28;20059;-59
2022/04/03 02:06:33;;;;;;;2.50;1.45;;;;;;;-2.25;100.00;97101.84;5113119;28;20555;-59
2022/04/03 02:09:01;;;;;;;2.28;1.80;;;;;;;-2.26;100.00;97098.38;5112912;28;20142;-58
2022/04/03 02:11:27;;;;;;;2.15;1.52;;;;;;;-2.37;100.00;97099.88;5113066;28;20443;-59
2022/04/03 02:13:54;;;;;;;2.20;1.23;;;;;;;-2.37;100.00;97084.59;5113182;28;20505;-59
2022/04/03 02:16:22;;;;;;;2.47;1.65;;;;;;;-2.37;100.00;97081.91;5112926;28;20054;-58
2022/04/03 02:18:49;;;;;;;3.33;1.77;;;;;;;-2.39;100.00;97076.06;5112902;28;20054;-59
2022/04/03 02:21:15;;;;;;;2.95;1.85;;;;;;;-2.37;100.00;97075.72;5112951;28;20052;-59
2022/04/03 02:23:41;;;;;;;3.30;1.85;;;;;;;-2.37;100.00;97063.13;5112700;28;20055;-58
2022/04/03 02:26:07;;;;;;;2.45;1.88;;;;;;;-2.40;100.00;97065.66;5112939;28;20468;-59
2022/04/03 02:28:34;;;;;;;3.15;1.90;;;;;;;-2.33;100.00;97059.75;5112630;28;20051;-59
2022/04/03 02:31:00;;;;;;;4.20;1.90;;;;;;;-2.39;100.00;97065.34;5112932;28;20044;-59
2022/04/03 02:33:27;;;;;;;2.15;1.55;;;;;;;-2.40;100.00;97057.59;5112155;28;20059;-59
2022/04/03 02:35:53;;;;;;;2.90;1.92;;;;;;;-2.39;100.00;97054.59;5112853;28;20051;-58
2022/04/03 02:38:19;;;;;;;2.38;2.00;;;;;;;-2.46;100.00;97062.41;5112787;28;20063;-59
2022/04/03 02:40:46;;;;;;;5.53;2.28;;;;;;;-2.42;100.00;97051.81;5112779;28;20525;-59
2022/04/03 02:43:12;;;;;;;2.25;1.58;;;;;;;-2.41;100.00;97037.25;5112665;28;20055;-58
2022/04/03 02:45:39;;;;;;;1.75;1.65;;;;;;;-2.41;100.00;97064.09;5112817;28;20052;-58
2022/04/03 02:48:07;;;;;;;2.95;1.55;;;;;;;-2.32;100.00;97067.50;5112561;28;20097;-58
2022/04/03 02:50:35;;;;;;;3.38;1.92;;;;;;;-2.38;100.00;97066.13;5112277;28;20085;-59
2022/04/03 02:53:01;;;;;;;3.88;1.80;;;;;;;-2.37;100.00;97063.13;5111507;28;20051;-59
2022/04/03 02:55:27;;;;;;;4.60;1.90;;;;;;;-2.40;100.00;97068.34;5112376;28;20051;-59
2022/04/03 02:57:53;;;;;;;2.10;1.73;;;;;;;-2.40;100.00;97061.09;5112635;28;20051;-59
2022/04/03 03:00:20;;;;;;;2.63;1.95;;;;;;;-2.41;100.00;97064.88;5112763;28;20048;-59
2022/04/03 03:02:48;;;;;;;2.55;1.92;;;;;;;-2.42;100.00;97065.22;5112340;28;20051;-59
2022/04/03 03:05:15;;;;;;;3.45;2.08;;;;;;;-2.52;100.00;97071.78;5112170;28;20094;-59
2022/04/03 03:07:45;;;;;;;2.70;2.08;;;;;;;-2.55;100.00;97072.44;5112273;28;20105;-58
2022/04/03 03:10:14;;;;;;;2.65;1.95;;;;;;;-2.49;100.00;97057.72;5112017;28;20047;-59
2022/04/03 03:12:40;;;;;;;4.80;2.47;;;;;;;-2.44;100.00;97075.50;5112247;28;20419;-59
2022/04/03 03:15:08;;;;;;;6.78;2.28;;;;;;;-2.48;100.00;97070.00;5111837;28;20055;-58
2022/04/03 03:17:34;;;;;;;2.33;2.10;;;;;;;-2.51;100.00;97065.28;5112030;28;20056;-59
2022/04/03 03:20:00;;;;;;;5.05;2.30;;;;;;;-2.51;100.00;97059.94;5111918;28;20051;-59
2022/04/03 03:22:26;;;;;;;2.50;1.92;;;;;;;-2.51;100.00;97053.78;5111949;28;20078;-58
2022/04/03 03:24:52;;;;;;;3.95;2.13;;;;;;;-2.56;100.00;97054.78;5111934;28;20051;-59
2022/04/03 03:27:19;;;;;;;4.43;2.33;;;;;;;-2.62;100.00;97062.25;5111954;28;20061;-59
2022/04/03 03:29:45;;;;;;;2.97;2.10;;;;;;;-2.58;100.00;97051.63;5112062;28;20138;-59
2022/04/03 03:32:11;;;;;;;5.15;2.10;;;;;;;-2.57;100.00;97050.50;5111684;28;20097;-59
2022/04/03 03:34:37;;;;;;;2.40;1.88;;;;;;;-2.65;100.00;97046.03;5111396;28;20048;-59
2022/04/03 03:37:03;;;;;;;4.85;2.33;;;;;;;-2.62;100.00;97048.84;5111659;28;20051;-59
2022/04/03 03:39:30;;;;;;;7.78;2.22;;;;;;;-2.67;100.00;97057.06;5111992;28;20462;-58
2022/04/03 03:41:57;;;;;;;2.03;1.80;;;;;;;-2.64;100.00;97055.63;5111611;28;20063;-59
2022/04/03 03:44:23;;;;;;;4.13;2.28;;;;;;;-2.64;100.00;97058.31;5111508;28;20052;-58
2022/04/03 03:46:50;;;;;;;5.05;2.63;;;;;;;-2.62;100.00;97061.47;5111454;28;20051;-58
2022/04/03 03:49:16;;;;;;;3.92;2.40;;;;;;;-2.58;100.00;97073.09;5111789;28;20055;-58
2022/04/03 03:51:43;;;;;;;2.53;1.85;;;;;;;-2.57;100.00;97074.66;5111222;28;20465;-58
2022/04/03 03:54:10;;;;;;;4.07;2.35;;;;;;;-2.50;100.00;97058.03;5111752;28;20051;-58
2022/04/03 03:56:37;;;;;;;2.97;1.92;;;;;;;-2.50;100.00;97074.94;5111533;28;20051;-58
2022/04/03 03:59:05;;;;;;;4.45;2.53;;;;;;;-2.56;100.00;97081.63;5111744;28;20517;-59
2022/04/03 04:01:31;;;;;;;10.73;2.65;;;;;;;-2.58;100.00;97089.19;5111491;28;20063;-58
2022/04/03 04:03:57;;;;;;;4.07;2.40;;;;;;;-2.50;100.00;97082.97;5111118;28;20059;-58
2022/04/03 04:06:24;;;;;;;2.78;2.30;;;;;;;-2.53;100.00;97086.31;5111487;28;20056;-58
2022/04/03 04:08:50;;;;;;;2.50;2.30;;;;;;;-2.49;100.00;97087.22;5111360;28;20051;-58
2022/04/03 04:11:17;;;;;;;3.05;2.28;;;;;;;-2.41;100.00;97088.25;5111377;28;20142;-59
2022/04/03 04:13:43;;;;;;;3.72;2.30;;;;;;;-2.43;100.00;97099.31;5111027;28;20502;-59
2022/04/03 04:16:10;;;;;;;6.13;2.17;;;;;;;-2.32;100.00;97088.19;5111134;28;20048;-58
2022/04/03 04:18:37;;;;;;;4.28;2.70;;;;;;;-2.26;100.00;97103.75;5111139;28;20059;-59
2022/04/03 04:21:03;;;;;;;3.63;2.13;;;;;;;-2.26;100.00;97100.28;5110987;28;20502;-58
2022/04/03 04:23:30;;;;;;;5.45;2.35;;;;;;;-2.25;100.00;97112.56;5111020;28;20561;-59
2022/04/03 04:25:56;;;;;;;4.47;2.80;;;;;;;-2.17;100.00;97109.78;5110883;28;20048;-59
2022/04/03 04:28:22;;;;;;;2.92;2.28;;;;;;;-2.19;100.00;97124.69;5111169;28;20157;-59
2022/04/03 04:30:49;;;;;;;5.22;2.30;;;;;;;-2.15;100.00;97123.66;5110753;28;20085;-59
2022/04/03 04:33:16;;;;;;;4.10;2.53;;;;;;;-2.03;100.00;97122.94;5110930;28;20059;-59
2022/04/03 04:35:42;;;;;;;3.13;2.75;;;;;;;-1.90;100.00;97126.41;5110204;28;20422;-59
2022/04/03 04:38:08;;;;;;;2.83;2.25;;;;;;;-1.78;100.00;97134.50;5110804;28;20047;-59
2022/04/03 04:40:34;;;;;;;2.92;2.45;;;;;;;-1.71;100.00;97133.94;5110472;28;20097;-59
2022/04/03 04:43:01;;;;;;;3.75;2.85;;;;;;;-1.60;100.00;97158.47;5110670;28;20502;-59
2022/04/03 04:45:27;;;;;;;5.88;2.50;;;;;;;-1.54;100.00;97152.53;5110377;28;20058;-59
2022/04/03 04:47:59;;;;;;;2.83;2.35;;;;;;;-1.42;100.00;97170.59;5110503;28;20460;-59
2022/04/03 04:50:27;;;;;;;3.60;2.70;;;;;;;-1.16;100.00;97172.97;5110663;28;20475;-59
2022/04/03 04:52:54;;;;;;;3.25;2.08;;;;;;;-0.84;100.00;97186.59;5110425;28;20216;-59
2022/04/03 04:55:20;;;;;;;3.20;2.72;;;;;;;-0.78;100.00;97215.63;5110778;28;20047;-59
2022/04/03 04:57:49;;;;;;;5.20;2.50;;;;;;;-0.66;100.00;97227.53;5110389;28;20060;-59
2022/04/03 05:00:18;;;;;;;5.00;2.85;;;;;;;-0.71;100.00;97237.38;5110654;28;20484;-59
2022/04/03 05:02:46;;;;;;;7.40;2.88;;;;;;;-0.75;100.00;97263.38;5110550;28;20058;-59
2022/04/03 05:05:13;;;;;;;3.33;2.65;;;;;;;-0.61;100.00;97244.19;5110709;28;20146;-59
2022/04/03 05:07:40;;;;;;;6.20;2.17;;;;;;;-0.36;100.00;97255.72;5110508;28;20202;-58
2022/04/03 05:10:08;;;;;;;4.45;2.70;;;;;;;-0.11;100.00;97280.69;5110350;28;20481;-59
2022/04/03 05:12:35;;;;;;;4.00;3.00;;;;;;;0.10;100.00;97296.69;5110243;28;20058;-59
2022/04/03 05:15:02;;;;;;;4.47;3.03;;;;;;;0.37;100.00;97310.53;5109778;28;20048;-59
2022/04/03 05:17:28;;;;;;;7.30;3.28;;;;;;;0.56;100.00;97324.13;5110308;28;20051;-59
2022/04/03 05:19:54;;;;;;;5.43;2.92;;;;;;;0.72;100.00;97340.38;5110542;28;20078;-59
2022/04/03 05:22:23;;;;;;;5.25;2.05;;;;;;;0.82;100.00;97364.16;5110568;28;20089;-59
2022/04/03 05:24:50;;;;;;;3.80;2.35;;;;;;;0.98;100.00;97372.28;5110053;28;20487;-59
2022/04/03 05:27:16;;;;;;;5.35;3.00;;;;;;;1.10;100.00;97382.22;5110215;28;20059;-59
2022/04/03 05:29:43;;;;;;;4.63;2.53;;;;;;;1.21;100.00;97394.09;5110167;28;20089;-59
2022/04/03 05:32:09;;;;;;;6.63;2.50;;;;;;;1.37;100.00;97405.69;5110455;28;20052;-59
2022/04/03 05:34:35;;;;;;;6.32;2.90;;;;;;;1.56;100.00;97413.09;5109629;28;20156;-59
2022/04/03 05:37:02;;;;;;;4.15;2.58;;;;;;;1.79;100.00;97432.19;5110123;28;20078;-59
2022/04/03 05:39:28;;;;;;;4.93;2.55;;;;;;;2.04;100.00;97443.59;5109719;28;20059;-58
2022/04/03 05:41:55;;;;;;;5.43;3.05;;;;;;;1.89;100.00;97464.06;5109825;28;20048;-59
2022/04/03 05:44:22;;;;;;;3.60;2.95;;;;;;;1.91;100.00;97462.97;5109827;28;20083;-59
2022/04/03 05:46:48;;;;;;;5.25;3.22;;;;;;;1.98;100.00;97471.25;5109753;28;20093;-59
2022/04/03 05:49:14;;;;;;;2.55;2.25;;;;;;;1.96;100.00;97485.09;5110003;28;20083;-59
2022/04/03 05:51:40;;;;;;;3.08;2.75;;;;;;;2.26;100.00;97481.94;5109479;28;20052;-59
2022/04/03 05:54:07;;;;;;;3.67;2.47;;;;;;;2.47;100.00;97498.66;5109822;28;20097;-59
2022/04/03 05:56:33;;;;;;;5.30;2.78;;;;;;;2.80;100.00;97500.94;5109584;28;20047;-58
2022/04/03 05:59:00;;;;;;;6.40;2.60;;;;;;;2.99;100.00;97516.41;5109841;28;20048;-60
2022/04/03 06:01:26;;;;;;;4.20;2.40;;;;;;;3.37;100.00;97533.81;5109293;28;20096;-59
2022/04/03 06:03:52;;;;;;;3.15;2.33;;;;;;;3.54;100.00;97552.34;5109637;28;20043;-59
2022/04/03 06:06:18;;;;;;;5.88;2.78;;;;;;;3.60;100.00;97562.88;5109543;28;20572;-59
2022/04/03 06:08:44;;;;;;;4.80;2.40;;;;;;;3.79;100.00;97565.56;5109925;28;20426;-59
2022/04/03 06:11:11;;;;;;;6.15;2.78;;;;;;;3.96;100.00;97575.97;5109694;28;20044;-59
2022/04/03 06:13:37;;;;;;;4.60;2.60;;;;;;;4.11;100.00;97593.28;5109155;28;20051;-59
2022/04/03 06:16:04;;;;;;;3.03;2.38;;;;;;;4.11;100.00;97589.78;5109560;28;20055;-59
2022/04/03 06:18:30;;;;;;;4.72;2.50;;;;;;;3.71;100.00;97599.91;5109413;28;20048;-59
2022/04/03 06:20:57;;;;;;;3.22;2.53;;;;;;;3.60;100.00;97585.38;5109617;28;20102;-59
2022/04/03 06:23:23;;;;;;;3.40;2.42;;;;;;;3.80;100.00;97577.19;5109106;28;20418;-59
2022/04/03 06:25:54;;;;;;;5.03;2.60;;;;;;;4.06;100.00;97581.94;5109314;28;20047;-58
2022/04/03 06:28:20;;;;;;;5.43;2.55;;;;;;;4.15;100.00;97596.06;5111109;28;20434;-59
2022/04/03 06:30:46;;;;;;;5.15;2.63;;;;;;;4.28;100.00;97600.16;5112902;28;20070;-59
2022/04/03 06:33:13;;;;;;;3.75;2.58;;;;;;;4.32;100.00;97605.66;5112448;28;20083;-59
2022/04/03 06:35:40;;;;;;;4.10;2.40;;;;;;;4.38;100.00;97604.22;5112520;28;20050;-60
2022/04/03 06:38:06;;;;;;;3.38;2.55;;;;;;;4.47;100.00;97605.53;5112706;28;20048;-60
2022/04/03 06:40:33;;;;;;;4.05;2.47;;;;;;;4.76;100.00;97606.00;5112591;28;20043;-59
2022/04/03 06:43:00;;;;;;;5.05;2.90;;;;;;;4.68;100.00;97620.59;5112755;28;20058;-59
2022/04/03 06:45:27;;;;;;;4.63;2.47;;;;;;;4.35;100.00;97621.22;5112403;28;20568;-59
2022/04/03 06:47:53;;;;;;;3.40;2.40;;;;;;;3.80;100.00;97626.81;5112644;28;20105;-59
2022/04/03 06:50:20;;;;;;;7.28;2.30;;;;;;;3.97;100.00;97623.66;5112121;28;20101;-59
2022/04/03 06:52:47;;;;;;;5.68;2.40;;;;;;;4.55;100.00;97611.88;5112367;28;20055;-59
2022/04/03 06:55:13;;;;;;;3.22;2.55;;;;;;;5.46;100.00;97601.94;5112284;28;20052;-59
2022/04/03 06:57:40;;;;;;;8.35;3.05;;;;;;;5.75;92.91;97643.06;5112523;28;20655;-59
2022/04/03 07:00:08;;;;;;;4.30;2.47;;;;;;;5.33;89.35;97660.38;5111922;28;20532;-59
2022/04/03 07:02:35;;;;;;;5.20;2.45;;;;;;;5.76;94.61;97641.91;5112147;28;20091;-59
2022/04/03 07:05:02;;;;;;;2.78;2.17;;;;;;;6.19;89.19;97662.28;5111837;28;20526;-59
2022/04/03 07:07:29;;;;;;;5.25;2.30;;;;;;;6.82;90.98;97650.44;5111886;28;20105;-59
2022/04/03 07:09:55;;;;;;;7.28;2.67;;;;;;;7.39;86.07;97654.72;5112076;28;20058;-59
2022/04/03 07:12:23;;;;;;;3.42;2.60;;;;;;;7.66;80.42;97668.91;5112034;28;20422;-59
2022/04/03 07:14:49;;;;;;;3.63;2.70;;;;;;;7.63;78.59;97686.84;5112220;28;20044;-59
2022/04/03 07:17:16;;;;;;;5.50;2.30;;;;;;;7.54;75.44;97692.63;5111990;28;20422;-59
2022/04/03 07:19:43;;;;;;;3.85;2.63;;;;;;;7.67;80.22;97684.91;5112295;28;20043;-59
2022/04/03 07:22:09;;;;;;;2.88;2.58;;;;;;;7.47;75.96;97695.31;5111746;28;20056;-59
2022/04/03 07:24:36;;;;;;;3.25;2.38;;;;;;;7.43;74.76;97697.22;5112095;28;20101;-59
2022/04/03 07:27:03;;;;;;;7.10;2.20;;;;;;;7.36;71.98;97696.38;5111767;28;20057;-59
2022/04/03 07:29:29;;;;;;;3.85;2.50;;;;;;;6.95;70.25;97708.13;5111797;28;20043;-59
2022/04/03 07:31:55;;;;;;;5.10;2.67;;;;;;;7.44;72.31;97703.47;5111369;28;20058;-59
2022/04/03 07:34:22;;;;;;;3.03;2.20;;;;;;;8.19;73.00;97698.38;5111147;28;20051;-59
2022/04/03 07:36:49;;;;;;;2.92;2.17;;;;;;;8.43;69.57;97705.91;5111874;28;20044;-59
2022/04/03 07:39:15;;;;;;;2.85;1.98;;;;;;;8.20;68.47;97706.19;5111076;28;20048;-59
2022/04/03 07:41:42;;;;;;;2.00;1.83;;;;;;;8.35;69.27;97715.22;5111654;28;20530;-59
2022/04/03 07:44:10;;;;;;;2.70;1.85;;;;;;;8.17;66.53;97720.63;5111603;28;20051;-59
2022/04/03 07:46:36;;;;;;;3.55;2.30;;;;;;;8.12;66.54;97723.69;5111754;28;20052;-59
2022/04/03 07:49:03;;;;;;;2.85;1.90;;;;;;;8.15;66.73;97724.88;5111412;28;20052;-59
2022/04/03 07:51:29;;;;;;;2.70;2.03;;;;;;;8.66;67.37;97721.97;5111480;28;20047;-59
2022/04/03 07:53:56;;;;;;;2.85;1.88;;;;;;;9.30;64.94;97723.97;5111467;28;20043;-59
2022/04/03 07:56:22;;;;;;;2.42;1.85;;;;;;;9.36;64.71;97722.41;5111672;28;20047;-59
2022/04/03 07:58:49;;;;;;;2.30;2.10;;;;;;;9.31;63.23;97735.69;5111293;28;20051;-59
2022/04/03 08:01:16;;;;;;;3.35;2.15;;;;;;;9.30;61.89;97740.38;5111339;28;20125;-59
2022/04/03 08:03:42;;;;;;;2.10;1.90;;;;;;;8.84;61.23;97726.69;5111569;28;20495;-59
2022/04/03 08:06:09;;;;;;;2.78;1.70;;;;;;;8.64;59.68;97740.69;5111725;28;20548;-59
2022/04/03 08:08:35;;;;;;;5.35;1.77;;;;;;;8.84;62.35;97740.34;5111431;28;20059;-59
2022/04/03 08:11:02;;;;;;;1.98;1.83;;;;;;;8.51;59.79;97741.44;5111203;28;20264;-59
2022/04/03 08:13:28;;;;;;;2.03;1.80;;;;;;;8.54;63.98;97741.44;5111506;28;20064;-59
2022/04/03 08:15:55;;;;;;;2.80;2.00;;;;;;;9.06;60.34;97730.97;5110835;28;20051;-58
2022/04/03 08:18:22;;;;;;;2.00;1.80;;;;;;;8.88;59.81;97741.13;5111140;28;20134;-59
2022/04/03 08:20:48;;;;;;;2.88;1.67;;;;;;;8.49;60.36;97750.78;5110815;28;20081;-59
2022/04/03 08:23:14;;;;;;;2.75;1.73;;;;;;;8.42;61.13;97753.50;5111178;28;20082;-58
2022/04/03 08:25:41;;;;;;;2.78;1.83;;;;;;;8.15;58.24;97744.78;5110878;28;20047;-58
2022/04/03 08:28:07;;;;;;;4.30;1.80;;;;;;;8.50;59.46;97737.94;5110790;28;20051;-59
2022/04/03 08:30:36;;;;;;;2.35;1.60;;;;;;;9.01;61.76;97742.31;5110784;28;20407;-58
2022/04/03 08:33:04;;;;;;;2.05;1.85;;;;;;;8.68;60.38;97746.16;5110809;28;20055;-59
2022/04/03 08:35:31;;;;;;;2.67;2.10;;;;;;;9.29;60.67;97743.50;5110778;28;20146;-59
2022/04/03 08:37:59;;;;;;;2.72;2.10;;;;;;;9.65;59.66;97753.25;5110844;28;20506;-59
2022/04/03 08:40:26;;;;;;;6.35;1.60;;;;;;;9.63;58.88;97736.47;5111181;28;20055;-59
2022/04/03 08:42:54;;;;;;;1.77;1.63;;;;;;;8.94;59.56;97762.22;5110658;28;20055;-58
2022/04/03 08:45:21;;;;;;;1.70;1.60;;;;;;;8.75;57.24;97754.38;5111134;28;20055;-58
2022/04/03 08:47:49;;;;;;;2.13;1.65;;;;;;;8.06;60.63;97754.47;5110881;28;20093;-58
2022/04/03 08:50:17;;;;;;;3.30;2.08;;;;;;;8.34;61.92;97751.09;5109754;28;20054;-58
2022/04/03 08:52:46;;;;;;;2.20;1.77;;;;;;;8.32;60.76;97747.97;5110181;28;20056;-59
2022/04/03 08:55:13;;;;;;;2.03;1.80;;;;;;;8.11;58.52;97752.16;5110368;28;20048;-58
2022/04/03 08:57:40;;;;;;;2.08;1.80;;;;;;;8.41;60.16;97757.41;5110405;28;20059;-58
2022/04/03 09:00:07;;;;;;;1.80;1.70;;;;;;;8.08;58.35;97758.38;5110207;28;20510;-59
2022/04/03 09:02:34;;;;;;;3.88;1.67;;;;;;;8.10;58.74;97755.28;5110494;28;20055;-59
2022/04/03 09:05:00;;;;;;;2.17;1.80;;;;;;;8.35;61.96;97753.44;5110307;28;20407;-59
2022/04/03 09:07:27;;;;;;;2.75;1.70;;;;;;;8.18;60.22;97754.94;5109985;28;20059;-58
2022/04/03 09:09:57;;;;;;;4.72;1.70;;;;;;;8.19;61.55;97752.97;5109826;28;20063;-59
2022/04/03 09:12:24;;;;;;;2.47;1.90;;;;;;;8.62;62.55;97750.44;5110352;28;20414;-59
2022/04/03 09:14:52;;;;;;;2.97;1.50;;;;;;;8.95;58.30;97752.84;5110079;28;20503;-59
2022/04/03 09:17:32;;;;;;;1.95;1.67;;;;;;;9.14;58.66;97746.25;5110036;28;20063;-59
2022/04/03 09:20:01;;;;;;;2.25;2.00;;;;;;;9.00;59.34;97762.63;5110164;28;20407;-58
2022/04/03 09:22:30;;;;;;;2.00;1.80;;;;;;;8.26;57.95;97758.47;5109833;28;20059;-58
2022/04/03 09:24:56;;;;;;;2.70;2.10;;;;;;;7.89;63.33;97758.66;5110295;28;20455;-58
2022/04/03 09:27:23;;;;;;;2.58;1.80;;;;;;;8.05;62.19;97737.31;5109945;28;20051;-59
2022/04/03 09:30:01;;;;;;;2.47;2.00;;;;;;;8.48;64.71;97741.03;5110327;28;20418;-59
2022/04/03 09:32:27;;;;;;;2.58;1.77;;;;;;;8.59;61.54;97746.53;5109858;28;20502;-58
2022/04/03 09:34:56;;;;;;;2.17;1.98;;;;;;;8.84;59.83;97745.81;5109938;28;20100;-58
2022/04/03 09:37:23;;;;;;;2.58;1.85;;;;;;;8.67;59.27;97750.84;5109776;28;20044;-58
2022/04/03 09:39:50;;;;;;;4.20;1.95;;;;;;;8.62;62.79;97753.16;5110155;28;20054;-59
2022/04/03 09:42:16;;;;;;;2.08;1.70;;;;;;;8.88;61.33;97760.25;5109739;28;20055;-58
2022/04/03 09:44:44;;;;;;;2.67;1.90;;;;;;;8.81;60.52;97760.25;5109898;28;20059;-58
2022/04/03 09:47:12;;;;;;;2.25;2.03;;;;;;;8.55;61.75;97747.69;5109871;28;20051;-58
2022/04/03 09:49:38;;;;;;;1.95;1.60;;;;;;;8.53;57.63;97758.19;5109445;28;20055;-58
2022/04/03 09:52:05;;;;;;;6.93;2.17;;;;;;;8.18;57.32;97760.38;5109264;28;20051;-59
2022/04/03 09:54:31;;;;;;;1.98;1.88;;;;;;;7.97;58.45;97760.28;5109586;28;20078;-58
2022/04/03 09:57:18;;;;;;;3.22;1.90;;;;;;;8.06;60.08;97757.19;5109651;28;20105;-58
2022/04/03 09:59:48;;;;;;;2.17;1.60;;;;;;;8.35;62.81;97758.91;5109435;28;20461;-58
2022/04/03 10:02:15;;;;;;;2.20;1.90;;;;;;;7.94;61.52;97755.59;5111773;28;20055;-59
2022/04/03 10:04:42;;;;;;;2.70;2.20;;;;;;;7.87;62.63;97745.41;5112884;28;20047;-58
2022/04/03 10:07:12;;;;;;;1.98;1.77;;;;;;;7.87;62.60;97741.91;5113222;28;20047;-58
2022/04/03 10:09:49;;;;;;;4.03;2.20;;;;;;;7.95;61.00;97738.03;5113094;28;20062;-58
2022/04/03 10:12:18;;;;;;;3.70;2.10;;;;;;;7.84;64.33;97735.25;5112856;28;20119;-58
2022/04/03 10:14:44;;;;;;;4.22;2.30;;;;;;;8.19;64.23;97739.31;5113094;28;20047;-59
2022/04/03 10:17:11;;;;;;;5.03;2.03;;;;;;;8.10;61.76;97738.91;5112850;28;20100;-58
2022/04/03 10:19:37;;;;;;;1.70;1.60;;;;;;;7.80;60.87;97734.47;5112763;28;20051;-58
2022/04/03 10:22:08;;;;;;;3.55;1.70;;;;;;;8.07;63.11;97736.94;5112579;28;20197;-58
2022/04/03 10:24:36;;;;;;;1.83;1.70;;;;;;;8.15;63.87;97719.44;5112728;28;20100;-59
2022/04/03 10:27:07;;;;;;;3.10;2.08;;;;;;;8.29;63.78;97727.66;5112652;28;20052;-58
2022/04/03 10:29:37;;;;;;;3.75;2.10;;;;;;;8.68;63.51;97727.03;5112861;28;20075;-58
2022/04/03 10:32:05;;;;;;;2.78;1.90;;;;;;;8.93;60.81;97738.03;5112655;28;20079;-58
2022/04/03 10:34:45;;;;;;;2.72;1.92;;;;;;;8.52;62.23;97721.91;5112226;28;20096;-58
2022/04/03 10:37:24;;;;;;;2.58;2.10;;;;;;;8.31;61.00;97722.59;5112919;28;20044;-59
2022/04/03 10:39:52;;;;;;;2.80;1.80;;;;;;;8.51;65.02;97741.44;5112418;28;20054;-58
2022/04/03 10:42:25;;;;;;;3.30;2.03;;;;;;;8.43;60.58;97733.22;5112479;28;20055;-59
2022/04/03 10:45:32;;;;;;;2.75;1.85;;;;;;;8.48;60.94;97741.03;5112430;28;20427;-58
2022/04/03 10:48:26;;;;;;;4.15;1.80;;;;;;;8.56;59.41;97730.13;5052568;28;20504;-58
2022/04/03 10:51:06;;;;;;;2.72;2.08;;;;;;;8.37;61.08;97736.69;5112339;28;20111;-58
2022/04/03 10:53:34;;;;;;;2.17;1.75;;;;;;;8.32;61.18;97743.28;5112038;28;20055;-58
2022/04/03 10:56:07;;;;;;;4.03;1.80;;;;;;;8.35;63.75;97730.81;5112640;28;20070;-58
2022/04/03 10:58:55;;;;;;;4.25;1.67;;;;;;;8.16;59.52;97729.16;5112317;28;20047;-58
2022/04/03 11:01:24;;;;;;;2.13;1.92;;;;;;;7.79;60.06;97736.38;5107228;28;20418;-58
2022/04/03 11:03:59;;;;;;;3.05;1.90;;;;;;;7.84;61.45;97732.53;5112548;28;20486;-58
2022/04/03 11:06:36;;;;;;;3.15;1.90;;;;;;;7.94;63.65;97729.09;5111999;28;20058;-58
2022/04/03 11:09:13;;;;;;;2.38;1.90;;;;;;;7.96;63.90;97731.41;5112224;28;20157;-58
2022/04/03 11:11:51;;;;;;;3.35;1.70;;;;;;;7.91;59.81;97724.38;5112229;28;20069;-58
2022/04/03 11:14:56;;;;;;;1.80;1.70;;;;;;;7.54;61.04;97725.34;5111248;28;20059;-59
2022/04/03 11:17:47;;;;;;;3.20;1.70;;;;;;;7.08;66.70;97716.81;5112225;28;20130;-58
2022/04/03 11:20:34;;;;;;;3.03;1.88;;;;;;;6.56;66.49;97726.81;5111906;28;20134;-58
2022/04/03 11:23:02;;;;;;;4.18;1.80;;;;;;;6.23;67.02;97733.06;5111582;28;20059;-58
2022/04/03 11:25:28;;;;;;;2.88;1.88;;;;;;;5.63;66.92;97725.66;5111507;28;20521;-58
2022/04/03 11:27:55;;;;;;;2.22;1.90;;;;;;;5.26;68.10;97728.97;5111632;28;20051;-58
2022/04/03 11:30:21;;;;;;;3.22;1.60;;;;;;;5.27;71.55;97710.78;5111546;28;20134;-58
2022/04/03 11:32:48;;;;;;;2.15;1.85;;;;;;;5.27;72.48;97719.69;5111149;28;20367;-58
2022/04/03 11:35:14;;;;;;;1.77;1.67;;;;;;;5.17;70.95;97712.94;5110997;28;20052;-58
2022/04/03 11:37:44;;;;;;;3.83;1.90;;;;;;;5.05;70.98;97717.78;5111624;28;20479;-59